createdAt,value
2022-08-04T00:00:11.141Z,2.78
2022-08-04T00:02:59.486Z,2.80
2022-08-04T00:05:47.998Z,2.92
2022-08-04T00:08:45.623Z,3.35
2022-08-04T00:11:20.113Z,2.70
2022-08-04T00:14:03.306Z,3.40
2022-08-04T00:16:37.927Z,3.08
2022-08-04T00:19:12.207Z,3.03
2022-08-04T00:21:42.358Z,3.08
2022-08-04T00:24:13.009Z,2.53
2022-08-04T00:26:40.625Z,2.90
2022-08-04T00:29:07.343Z,2.80
2022-08-04T00:34:21.606Z,2.83
2022-08-04T00:36:48.732Z,2.58
2022-08-04T00:39:16.968Z,2.72
2022-08-04T00:42:09.680Z,3.17
2022-08-04T00:44:39.470Z,3.25
2022-08-04T00:47:27.503Z,2.70
2022-08-04T00:50:10.252Z,3.22
2022-08-04T00:53:01.431Z,2.90
2022-08-04T00:55:36.018Z,3.17
2022-08-04T00:58:16.599Z,2.95
2022-08-04T01:01:05.258Z,3.30
2022-08-04T01:04:22.459Z,2.97
2022-08-04T01:07:12.835Z,3.10
2022-08-04T01:10:08.019Z,2.97
2022-08-04T01:12:34.574Z,2.90
2022-08-04T01:15:07.779Z,2.65
2022-08-04T01:17:56.146Z,3.42
2022-08-04T01:20:26.634Z,2.78
2022-08-04T01:23:13.316Z,3.60
2022-08-04T01:25:48.752Z,3.38
2022-08-04T01:28:19.593Z,3.72
2022-08-04T01:30:49.505Z,3.13
2022-08-04T01:33:18.497Z,2.92
2022-08-04T01:35:54.754Z,2.50
2022-08-04T01:38:35.914Z,2.67
2022-08-04T01:41:15.237Z,2.80
2022-08-04T01:43:47.182Z,2.95
2022-08-04T01:46:17.462Z,2.92
2022-08-04T01:48:47.618Z,3.30
2022-08-04T01:51:15.090Z,3.00
2022-08-04T01:53:44.166Z,3.22
2022-08-04T01:56:13.032Z,2.97
2022-08-04T01:58:41.033Z,3.03
2022-08-04T02:01:11.070Z,3.25
2022-08-04T02:04:18.620Z,3.13
2022-08-04T02:06:47.797Z,3.10
2022-08-04T02:09:23.954Z,3.00
2022-08-04T02:12:28.468Z,2.72
2022-08-04T02:15:11.590Z,2.97
2022-08-04T02:17:53.150Z,3.17
2022-08-04T02:20:25.613Z,2.72
2022-08-04T02:23:01.400Z,2.97
2022-08-04T02:25:30.140Z,3.22
2022-08-04T02:28:30.126Z,3.10
2022-08-04T02:31:20.586Z,3.15
2022-08-04T02:34:18.061Z,2.95
2022-08-04T02:36:48.256Z,3.35
2022-08-04T02:39:20.134Z,2.88
2022-08-04T02:41:50.494Z,3.60
2022-08-04T02:44:22.603Z,3.10
2022-08-04T02:46:53.709Z,2.80
2022-08-04T02:49:23.044Z,3.15
2022-08-04T02:51:55.191Z,2.78
2022-08-04T02:54:45.675Z,3.00
2022-08-04T02:57:13.868Z,3.03
2022-08-04T03:00:10.360Z,2.85
2022-08-04T03:05:21.723Z,2.75
2022-08-04T03:08:19.447Z,2.90
2022-08-04T03:11:10.751Z,2.47
2022-08-04T03:14:09.542Z,2.72
2022-08-04T03:16:46.239Z,2.67
2022-08-04T03:19:19.432Z,2.65
2022-08-04T03:21:46.096Z,2.85
2022-08-04T03:24:49.243Z,2.80
2022-08-04T03:27:46.257Z,2.50
2022-08-04T03:30:38.238Z,2.65
2022-08-04T03:33:20.493Z,2.60
2022-08-04T03:36:31.566Z,2.70
2022-08-04T03:39:07.574Z,2.80
2022-08-04T03:41:55.119Z,2.60
2022-08-04T03:44:46.309Z,2.65
2022-08-04T03:47:44.411Z,2.75
2022-08-04T03:50:32.844Z,2.55
2022-08-04T03:53:28.423Z,2.40
2022-08-04T03:56:36.355Z,3.00
2022-08-04T03:59:14.973Z,2.75
2022-08-04T04:02:02.136Z,2.88
2022-08-04T04:04:41.828Z,2.72
2022-08-04T04:07:38.034Z,2.67
2022-08-04T04:10:17.771Z,2.63
2022-08-04T04:13:29.729Z,3.00
2022-08-04T04:16:05.830Z,2.95
2022-08-04T04:18:46.866Z,2.90
2022-08-04T04:21:16.570Z,2.70
2022-08-04T04:23:52.309Z,2.75
2022-08-04T04:26:19.369Z,2.72
2022-08-04T04:28:48.950Z,2.58
2022-08-04T04:31:39.785Z,2.70
2022-08-04T04:34:26.614Z,2.65
2022-08-04T04:37:12.414Z,2.28
2022-08-04T04:39:59.399Z,2.60
2022-08-04T04:42:30.093Z,2.60
2022-08-04T04:45:12.544Z,2.38
2022-08-04T04:48:09.704Z,2.72
2022-08-04T04:51:06.258Z,2.55
2022-08-04T04:54:00.370Z,2.42
2022-08-04T04:56:36.546Z,2.95
2022-08-04T04:59:09.264Z,2.72
2022-08-04T05:02:09.977Z,2.33
2022-08-04T05:04:54.794Z,2.67
2022-08-04T05:07:46.197Z,3.10
2022-08-04T05:10:50.589Z,2.55
2022-08-04T05:14:38.405Z,2.50
2022-08-04T05:16:35.269Z,2.38
2022-08-04T05:19:17.231Z,2.88
2022-08-04T05:21:50.096Z,2.88
2022-08-04T05:24:21.254Z,2.30
2022-08-04T05:26:52.713Z,2.53
2022-08-04T05:29:31.905Z,2.38
2022-08-04T05:32:04.813Z,2.30
2022-08-04T05:34:39.506Z,2.30
2022-08-04T05:37:12.211Z,2.33
2022-08-04T05:39:50.040Z,2.33
2022-08-04T05:42:16.903Z,2.20
2022-08-04T05:44:48.909Z,2.30
2022-08-04T05:47:17.894Z,2.92
2022-08-04T05:49:45.402Z,2.20
2022-08-04T05:52:23.207Z,2.40
2022-08-04T05:54:52.634Z,2.88
2022-08-04T05:57:21.585Z,2.30
2022-08-04T05:59:51.155Z,2.00
2022-08-04T06:05:09.640Z,2.58
2022-08-04T06:08:11.926Z,1.80
2022-08-04T06:10:37.833Z,1.85
2022-08-04T06:13:49.119Z,1.90
2022-08-04T06:16:01.557Z,2.17
2022-08-04T06:19:40.101Z,1.83
2022-08-04T06:21:24.994Z,1.90
2022-08-04T06:23:59.618Z,2.08
2022-08-04T06:26:34.925Z,1.85
2022-08-04T06:29:03.333Z,2.03
2022-08-04T06:32:31.425Z,1.67
2022-08-04T06:34:45.206Z,1.85
2022-08-04T06:37:12.257Z,2.05
2022-08-04T06:40:02.643Z,1.90
2022-08-04T06:42:43.740Z,2.00
2022-08-04T06:45:12.589Z,2.00
2022-08-04T06:47:41.510Z,1.70
2022-08-04T06:51:31.439Z,1.80
2022-08-04T06:52:59.158Z,1.80
2022-08-04T06:55:26.560Z,1.77
2022-08-04T06:57:57.477Z,1.70
2022-08-04T07:00:28.241Z,2.00
2022-08-04T07:02:55.437Z,1.70
2022-08-04T07:05:23.144Z,1.92
2022-08-04T07:07:57.241Z,1.83
2022-08-04T07:10:27.988Z,1.75
2022-08-04T07:12:57.532Z,2.10
2022-08-04T07:15:25.312Z,1.73
2022-08-04T07:17:53.819Z,1.80
2022-08-04T07:20:33.793Z,1.98
2022-08-04T07:23:06.455Z,1.60
2022-08-04T07:25:59.954Z,1.88
2022-08-04T07:28:26.972Z,1.70
2022-08-04T07:30:55.681Z,1.70
2022-08-04T07:33:24.513Z,1.95
2022-08-04T07:36:09.810Z,2.10
2022-08-04T07:38:48.326Z,1.92
2022-08-04T07:41:41.411Z,1.75
2022-08-04T07:44:10.140Z,1.88
2022-08-04T07:46:37.333Z,2.35
2022-08-04T07:49:05.769Z,1.90
2022-08-04T07:51:35.600Z,1.63
2022-08-04T07:54:05.057Z,1.77
2022-08-04T07:56:33.187Z,2.30
2022-08-04T07:59:00.873Z,1.80
2022-08-04T08:01:28.136Z,1.65
2022-08-04T08:03:57.299Z,1.90
2022-08-04T08:06:33.118Z,1.80
2022-08-04T08:12:52.144Z,1.75
2022-08-04T08:15:21.279Z,1.70
2022-08-04T08:17:58.301Z,1.75
2022-08-04T08:20:29.740Z,1.60
2022-08-04T08:22:57.276Z,1.50
2022-08-04T08:25:24.520Z,2.00
2022-08-04T08:27:56.044Z,1.60
2022-08-04T08:30:24.247Z,1.70
2022-08-04T08:32:51.275Z,1.63
2022-08-04T08:35:19.384Z,1.95
2022-08-04T08:37:55.112Z,1.63
2022-08-04T08:40:43.388Z,1.60
2022-08-04T08:44:05.757Z,1.50
2022-08-04T08:47:02.350Z,1.48
2022-08-04T08:50:04.592Z,1.60
2022-08-04T08:53:01.286Z,1.70
2022-08-04T08:55:42.850Z,1.50
2022-08-04T08:58:40.514Z,1.85
2022-08-04T09:01:11.488Z,1.45
2022-08-04T09:04:07.027Z,1.50
2022-08-04T09:07:04.723Z,1.40
2022-08-04T09:10:00.811Z,1.20
2022-08-04T09:16:21.052Z,1.20
2022-08-04T09:18:56.651Z,1.83
2022-08-04T09:21:37.610Z,1.27
2022-08-04T09:24:35.405Z,1.35
2022-08-04T09:27:28.708Z,1.60
2022-08-04T09:30:13.685Z,1.33
2022-08-04T09:33:45.518Z,1.38
2022-08-04T09:43:15.784Z,1.55
2022-08-04T09:45:53.269Z,1.33
2022-08-04T09:59:58.903Z,1.30
2022-08-04T10:06:16.421Z,1.45
2022-08-04T10:12:13.028Z,1.27
2022-08-04T10:14:55.079Z,1.23
2022-08-04T10:17:57.761Z,1.50
2022-08-04T10:21:15.618Z,1.40
2022-08-04T10:24:03.831Z,1.25
2022-08-04T10:26:55.573Z,1.50
2022-08-04T10:29:26.850Z,1.10
2022-08-04T10:32:22.723Z,1.38
2022-08-04T10:35:26.392Z,1.52
2022-08-04T10:49:54.616Z,1.50
2022-08-04T10:56:42.960Z,1.65
2022-08-04T10:59:43.298Z,1.40
2022-08-04T11:03:12.523Z,1.55
2022-08-04T11:10:13.004Z,1.50
2022-08-04T11:25:21.361Z,1.58
2022-08-04T11:29:03.795Z,1.40
2022-08-04T11:35:16.819Z,1.52
2022-08-04T11:38:05.003Z,1.37
2022-08-04T11:41:02.855Z,1.70
2022-08-04T11:44:06.819Z,1.40
2022-08-04T11:51:02.728Z,1.58
2022-08-04T11:53:37.534Z,1.60
2022-08-04T11:56:11.159Z,1.48
2022-08-04T12:01:47.723Z,1.48
2022-08-04T12:04:28.550Z,1.20
2022-08-04T12:07:21.674Z,1.67
2022-08-04T12:10:17.095Z,1.30
2022-08-04T12:13:28.124Z,1.50
2022-08-04T12:16:02.228Z,1.50
2022-08-04T12:18:40.385Z,1.50
2022-08-04T12:21:26.710Z,1.50
2022-08-04T12:24:00.593Z,1.35
2022-08-04T12:26:31.395Z,1.40
2022-08-04T12:29:16.398Z,1.40
2022-08-04T12:31:52.905Z,1.42
2022-08-04T12:34:32.178Z,1.20
2022-08-04T12:37:10.496Z,1.30
2022-08-04T12:40:17.018Z,1.30
2022-08-04T12:42:36.771Z,1.30
2022-08-04T12:45:08.818Z,1.60
2022-08-04T12:47:38.077Z,1.35
2022-08-04T12:50:07.832Z,1.48
2022-08-04T12:53:03.329Z,1.45
2022-08-04T12:55:33.587Z,1.50
2022-08-04T12:58:02.790Z,1.65
2022-08-04T13:00:40.753Z,1.30
2022-08-04T13:03:17.291Z,1.38
2022-08-04T13:05:45.435Z,1.52
2022-08-04T13:08:13.280Z,1.50
2022-08-04T13:10:44.650Z,1.50
2022-08-04T13:13:17.999Z,1.30
2022-08-04T13:15:56.425Z,1.50
2022-08-04T13:18:29.613Z,1.42
2022-08-04T13:21:20.999Z,1.35
2022-08-04T13:24:10.200Z,1.50
2022-08-04T13:27:04.979Z,1.60
2022-08-04T13:29:59.494Z,1.80
2022-08-04T13:32:26.114Z,1.45
2022-08-04T13:34:54.833Z,1.95
2022-08-04T13:37:27.566Z,1.33
2022-08-04T13:39:56.566Z,1.88
2022-08-04T13:42:26.015Z,1.40
2022-08-04T13:44:59.880Z,1.30
2022-08-04T13:47:35.021Z,1.70
2022-08-04T13:50:13.792Z,1.70
2022-08-04T13:52:41.961Z,1.50
2022-08-04T13:55:18.398Z,1.48
2022-08-04T13:57:47.106Z,1.60
2022-08-04T14:00:16.855Z,1.52
2022-08-04T14:06:49.326Z,1.50
2022-08-04T14:09:35.263Z,1.70
2022-08-04T14:12:38.364Z,1.50
2022-08-04T14:14:58.043Z,1.42
2022-08-04T14:17:44.170Z,1.48
2022-08-04T14:20:10.775Z,1.88
2022-08-04T14:22:37.667Z,1.50
2022-08-04T14:25:15.649Z,1.52
2022-08-04T14:27:49.761Z,1.70
2022-08-04T14:30:31.646Z,1.70
2022-08-04T14:34:02.762Z,2.28
2022-08-04T14:35:58.576Z,6.03
2022-08-04T14:38:43.055Z,3.90
2022-08-04T14:41:09.972Z,2.10
2022-08-04T14:43:49.838Z,1.75
2022-08-04T14:46:16.901Z,1.77
2022-08-04T14:49:10.096Z,1.77
2022-08-04T14:51:38.432Z,1.63
2022-08-04T14:54:08.596Z,1.98
2022-08-04T14:56:47.032Z,1.48
2022-08-04T14:59:13.975Z,1.80
2022-08-04T15:01:42.165Z,1.55
2022-08-04T15:04:11.148Z,1.50
2022-08-04T15:06:37.878Z,1.50
2022-08-04T15:09:09.782Z,1.58
2022-08-04T15:11:41.498Z,1.67
2022-08-04T15:14:09.826Z,2.22
2022-08-04T15:16:56.303Z,1.70
2022-08-04T15:19:23.623Z,1.67
2022-08-04T15:21:50.701Z,1.80
2022-08-04T15:24:17.338Z,1.40
2022-08-04T15:26:51.822Z,1.50
2022-08-04T15:30:00.290Z,1.73
2022-08-04T15:32:21.442Z,1.83
2022-08-04T15:34:50.223Z,1.60
2022-08-04T15:37:29.360Z,1.60
2022-08-04T15:40:04.174Z,1.60
2022-08-04T15:43:01.795Z,1.67
2022-08-04T15:46:43.396Z,1.88
2022-08-04T15:48:40.394Z,1.77
2022-08-04T15:51:15.216Z,1.58
2022-08-04T15:54:03.482Z,1.90
2022-08-04T15:56:29.941Z,1.60
2022-08-04T15:58:57.349Z,1.73
2022-08-04T16:02:11.693Z,1.60
2022-08-04T16:04:38.455Z,1.55
2022-08-04T16:07:05.455Z,1.80
2022-08-04T16:09:45.746Z,1.90
2022-08-04T16:12:54.130Z,3.20
2022-08-04T16:15:42.906Z,2.53
2022-08-04T16:18:26.736Z,2.20
2022-08-04T16:21:03.544Z,1.83
2022-08-04T16:23:56.850Z,1.60
2022-08-04T16:26:57.952Z,1.77
2022-08-04T16:29:44.438Z,1.70
2022-08-04T16:32:18.864Z,1.75
2022-08-04T16:34:54.278Z,1.65
2022-08-04T16:37:29.771Z,1.90
2022-08-04T16:40:24.028Z,2.08
2022-08-04T16:42:51.012Z,1.95
2022-08-04T16:45:18.332Z,1.98
2022-08-04T16:47:47.554Z,1.85
2022-08-04T16:50:22.595Z,2.00
2022-08-04T16:52:52.252Z,1.63
2022-08-04T16:55:28.891Z,1.90
2022-08-04T16:57:58.864Z,1.63
2022-08-04T17:00:31.335Z,1.48
2022-08-04T17:06:50.518Z,1.73
2022-08-04T17:09:25.543Z,1.52
2022-08-04T17:11:55.222Z,1.80
2022-08-04T17:18:15.758Z,1.52
2022-08-04T17:21:01.877Z,1.60
2022-08-04T17:24:14.437Z,1.70
2022-08-04T17:26:39.458Z,1.70
2022-08-04T17:29:08.351Z,1.70
2022-08-04T17:31:38.108Z,1.40
2022-08-04T17:34:19.194Z,1.70
2022-08-04T17:36:47.735Z,1.70
2022-08-04T17:39:24.413Z,1.90
2022-08-04T17:41:57.403Z,1.80
2022-08-04T17:44:37.217Z,1.90
2022-08-04T17:47:37.899Z,1.73
2022-08-04T17:50:11.673Z,1.98
2022-08-04T17:52:45.134Z,2.00
2022-08-04T17:55:16.247Z,2.05
2022-08-04T17:57:52.334Z,1.80
2022-08-04T18:00:19.582Z,1.55
2022-08-04T18:02:54.656Z,2.00
2022-08-04T18:06:01.347Z,1.70
2022-08-04T18:08:39.304Z,1.55
2022-08-04T18:11:03.879Z,1.63
2022-08-04T18:13:42.579Z,1.55
2022-08-04T18:16:22.354Z,1.65
2022-08-04T18:19:21.031Z,1.52
2022-08-04T18:24:56.362Z,1.80
2022-08-04T18:27:30.024Z,1.75
2022-08-04T18:30:34.014Z,1.80
2022-08-04T18:33:10.539Z,1.67
2022-08-04T18:36:32.615Z,1.90
2022-08-04T18:38:24.030Z,1.77
2022-08-04T18:40:53.173Z,1.85
2022-08-04T18:43:28.648Z,1.58
2022-08-04T18:45:57.948Z,1.60
2022-08-04T18:48:36.043Z,1.52
2022-08-04T18:51:22.318Z,1.33
2022-08-04T18:53:58.096Z,1.60
2022-08-04T18:56:32.558Z,1.58
2022-08-04T18:59:10.244Z,2.15
2022-08-04T19:02:17.407Z,1.50
2022-08-04T19:04:33.888Z,1.52
2022-08-04T19:09:54.178Z,1.60
2022-08-04T19:12:27.078Z,1.50
2022-08-04T19:14:58.122Z,1.92
2022-08-04T19:17:53.654Z,1.88
2022-08-04T19:20:24.166Z,1.70
2022-08-04T19:24:30.337Z,1.60
2022-08-04T19:25:59.060Z,1.48
2022-08-04T19:28:27.106Z,1.40
2022-08-04T19:30:57.021Z,1.85
2022-08-04T19:33:25.302Z,1.60
2022-08-04T19:35:52.204Z,1.75
2022-08-04T19:38:20.721Z,1.80
2022-08-04T19:40:52.655Z,1.30
2022-08-04T19:43:22.870Z,2.40
2022-08-04T19:45:50.520Z,1.50
2022-08-04T19:48:19.615Z,1.70
2022-08-04T19:50:46.773Z,1.52
2022-08-04T19:53:19.441Z,1.90
2022-08-04T19:55:49.769Z,1.83
2022-08-04T19:58:17.099Z,1.73
2022-08-04T20:00:44.806Z,1.60
2022-08-04T20:03:20.342Z,1.67
2022-08-04T20:05:53.611Z,1.90
2022-08-04T20:08:24.003Z,1.67
2022-08-04T20:10:51.469Z,1.52
2022-08-04T20:13:19.991Z,1.60
2022-08-04T20:15:57.322Z,1.90
2022-08-04T20:18:35.661Z,1.52
2022-08-04T20:21:11.378Z,1.70
2022-08-04T20:23:48.581Z,1.52
2022-08-04T20:26:16.626Z,1.50
2022-08-04T20:28:45.905Z,1.40
2022-08-04T20:31:18.342Z,1.52
2022-08-04T20:33:49.377Z,1.75
2022-08-04T20:36:20.783Z,1.80
2022-08-04T20:38:51.923Z,1.40
2022-08-04T20:41:22.456Z,1.50
2022-08-04T20:43:49.950Z,2.00
2022-08-04T20:46:29.463Z,1.58
2022-08-04T20:48:57.002Z,1.67
2022-08-04T20:51:31.628Z,1.63
2022-08-04T20:54:01.433Z,2.08
2022-08-04T20:56:35.609Z,1.80
2022-08-04T20:59:07.918Z,1.67
2022-08-04T21:01:38.260Z,1.80
2022-08-04T21:04:38.457Z,1.75
2022-08-04T21:07:10.804Z,1.45
2022-08-04T21:09:49.990Z,2.05
2022-08-04T21:12:27.861Z,2.00
2022-08-04T21:15:01.611Z,1.45
2022-08-04T21:17:58.777Z,1.55
2022-08-04T21:20:28.645Z,1.80
2022-08-04T21:22:55.833Z,1.73
2022-08-04T21:25:26.539Z,1.80
2022-08-04T21:27:53.381Z,1.77
2022-08-04T21:30:24.081Z,1.73
2022-08-04T21:32:52.096Z,1.85
2022-08-04T21:35:19.039Z,1.73
2022-08-04T21:37:57.860Z,1.80
2022-08-04T21:43:18.695Z,1.70
2022-08-04T21:45:46.933Z,1.60
2022-08-04T21:48:15.566Z,1.92
2022-08-04T21:50:42.910Z,1.90
2022-08-04T21:53:09.483Z,1.90
2022-08-04T21:58:28.989Z,1.77
2022-08-04T22:00:59.278Z,1.70
2022-08-04T22:06:13.011Z,1.70
2022-08-04T22:08:49.428Z,2.10
2022-08-04T22:14:28.960Z,1.88
2022-08-04T22:17:00.801Z,1.83
2022-08-04T22:19:50.404Z,2.15
2022-08-04T22:22:25.356Z,2.30
2022-08-04T22:25:01.211Z,2.05
2022-08-04T22:27:47.402Z,2.03
2022-08-04T22:30:23.325Z,2.05
2022-08-04T22:32:50.508Z,1.98
2022-08-04T22:35:36.483Z,2.20
2022-08-04T22:38:06.677Z,2.20
2022-08-04T22:40:36.209Z,2.13
2022-08-04T22:43:03.963Z,2.10
2022-08-04T22:45:53.768Z,2.60
2022-08-04T22:48:23.696Z,2.63
2022-08-04T22:50:54.757Z,2.22
2022-08-04T22:53:24.484Z,2.50
2022-08-04T22:56:06.694Z,2.10
2022-08-04T22:58:35.844Z,2.17
2022-08-04T23:01:06.838Z,2.47
2022-08-04T23:03:37.259Z,2.20
2022-08-04T23:06:07.093Z,2.47
2022-08-04T23:08:38.375Z,2.50
2022-08-04T23:11:08.802Z,2.65
2022-08-04T23:13:36.754Z,2.35
2022-08-04T23:16:10.074Z,2.35
2022-08-04T23:18:40.123Z,2.33
2022-08-04T23:21:10.283Z,2.70
2022-08-04T23:23:45.727Z,2.40
2022-08-04T23:26:27.774Z,2.40
2022-08-04T23:28:57.683Z,2.60
2022-08-04T23:31:41.172Z,2.45
2022-08-04T23:34:12.331Z,2.38
2022-08-04T23:36:39.155Z,2.05
2022-08-04T23:39:06.604Z,2.63
2022-08-04T23:41:50.914Z,2.42
2022-08-04T23:44:26.924Z,2.30
2022-08-04T23:47:01.278Z,2.53
2022-08-04T23:49:40.563Z,2.60
2022-08-04T23:52:23.448Z,2.33
2022-08-04T23:55:00.186Z,2.40
2022-08-04T23:57:30.807Z,2.83
